sensor_id;sensor_type;location;lat;lon;timestamp;P1;durP1;ratioP1;P2;durP2;ratioP2
37275;SDS011;23166;51.150;21.620;2022-08-03T00:00:46;10.85;;;6.00;;
37275;SDS011;23166;51.150;21.620;2022-08-03T00:03:12;11.10;;;6.65;;
37275;SDS011;23166;51.150;21.620;2022-08-03T00:05:39;8.63;;;5.65;;
37275;SDS011;23166;51.150;21.620;2022-08-03T00:08:05;9.55;;;6.95;;
37275;SDS011;23166;51.150;21.620;2022-08-03T00:10:31;10.25;;;6.33;;
37275;SDS011;23166;51.150;21.620;2022-08-03T00:12:58;8.98;;;6.10;;
37275;SDS011;23166;51.150;21.620;2022-08-03T00:15:24;8.30;;;5.53;;
37275;SDS011;23166;51.150;21.620;2022-08-03T00:17:51;10.70;;;5.42;;
37275;SDS011;23166;51.150;21.620;2022-08-03T00:20:17;7.62;;;6.15;;
37275;SDS011;23166;51.150;21.620;2022-08-03T00:22:44;7.55;;;5.40;;
37275;SDS011;23166;51.150;21.620;2022-08-03T00:25:10;12.37;;;6.08;;
37275;SDS011;23166;51.150;21.620;2022-08-03T00:27:37;7.58;;;5.65;;
37275;SDS011;23166;51.150;21.620;2022-08-03T00:30:03;8.78;;;6.40;;
37275;SDS011;23166;51.150;21.620;2022-08-03T00:32:31;9.08;;;6.58;;
37275;SDS011;23166;51.150;21.620;2022-08-03T00:34:57;10.35;;;6.92;;
37275;SDS011;23166;51.150;21.620;2022-08-03T00:37:24;9.73;;;7.20;;
37275;SDS011;23166;51.150;21.620;2022-08-03T00:39:50;7.33;;;5.58;;
37275;SDS011;23166;51.150;21.620;2022-08-03T00:42:17;8.80;;;6.15;;
37275;SDS011;23166;51.150;21.620;2022-08-03T00:44:43;12.23;;;7.72;;
37275;SDS011;23166;51.150;21.620;2022-08-03T00:47:10;11.22;;;6.83;;
37275;SDS011;23166;51.150;21.620;2022-08-03T00:49:37;10.28;;;6.20;;
37275;SDS011;23166;51.150;21.620;2022-08-03T00:52:05;6.58;;;5.78;;
37275;SDS011;23166;51.150;21.620;2022-08-03T00:54:35;12.13;;;6.33;;
37275;SDS011;23166;51.150;21.620;2022-08-03T00:57:02;9.28;;;5.90;;
37275;SDS011;23166;51.150;21.620;2022-08-03T00:59:29;11.20;;;6.65;;
37275;SDS011;23166;51.150;21.620;2022-08-03T01:01:56;9.63;;;6.85;;
37275;SDS011;23166;51.150;21.620;2022-08-03T01:04:22;10.95;;;6.80;;
37275;SDS011;23166;51.150;21.620;2022-08-03T01:06:50;9.25;;;6.22;;
37275;SDS011;23166;51.150;21.620;2022-08-03T01:09:24;12.65;;;7.17;;
37275;SDS011;23166;51.150;21.620;2022-08-03T01:12:11;9.65;;;6.53;;
37275;SDS011;23166;51.150;21.620;2022-08-03T01:14:48;11.23;;;7.17;;
37275;SDS011;23166;51.150;21.620;2022-08-03T01:17:35;8.68;;;6.35;;
37275;SDS011;23166;51.150;21.620;2022-08-03T01:20:05;7.37;;;6.25;;
37275;SDS011;23166;51.150;21.620;2022-08-03T01:28:26;8.35;;;6.10;;
37275;SDS011;23166;51.150;21.620;2022-08-03T01:30:58;7.62;;;5.80;;
37275;SDS011;23166;51.150;21.620;2022-08-03T01:33:30;7.45;;;6.12;;
37275;SDS011;23166;51.150;21.620;2022-08-03T01:36:12;9.38;;;5.85;;
37275;SDS011;23166;51.150;21.620;2022-08-03T01:38:47;10.40;;;7.17;;
37275;SDS011;23166;51.150;21.620;2022-08-03T01:41:20;10.45;;;7.22;;
37275;SDS011;23166;51.150;21.620;2022-08-03T01:43:47;8.45;;;5.75;;
37275;SDS011;23166;51.150;21.620;2022-08-03T01:46:16;8.85;;;5.58;;
37275;SDS011;23166;51.150;21.620;2022-08-03T01:48:46;9.10;;;6.70;;
37275;SDS011;23166;51.150;21.620;2022-08-03T01:51:14;5.85;;;5.03;;
37275;SDS011;23166;51.150;21.620;2022-08-03T01:53:43;10.00;;;6.03;;
37275;SDS011;23166;51.150;21.620;2022-08-03T01:56:09;9.78;;;6.75;;
37275;SDS011;23166;51.150;21.620;2022-08-03T01:58:37;9.25;;;6.20;;
37275;SDS011;23166;51.150;21.620;2022-08-03T02:01:05;12.43;;;7.42;;
37275;SDS011;23166;51.150;21.620;2022-08-03T02:03:35;9.45;;;6.20;;
37275;SDS011;23166;51.150;21.620;2022-08-03T02:06:03;10.85;;;6.22;;
37275;SDS011;23166;51.150;21.620;2022-08-03T02:08:30;8.35;;;5.70;;
37275;SDS011;23166;51.150;21.620;2022-08-03T02:10:58;8.43;;;6.37;;
37275;SDS011;23166;51.150;21.620;2022-08-03T02:13:27;10.85;;;5.72;;
37275;SDS011;23166;51.150;21.620;2022-08-03T02:15:55;14.47;;;7.03;;
37275;SDS011;23166;51.150;21.620;2022-08-03T02:18:23;9.20;;;6.42;;
37275;SDS011;23166;51.150;21.620;2022-08-03T02:20:50;9.28;;;6.87;;
37275;SDS011;23166;51.150;21.620;2022-08-03T02:23:17;7.95;;;5.62;;
37275;SDS011;23166;51.150;21.620;2022-08-03T02:25:44;8.50;;;6.10;;
37275;SDS011;23166;51.150;21.620;2022-08-03T02:28:18;15.98;;;6.90;;
37275;SDS011;23166;51.150;21.620;2022-08-03T02:30:47;10.50;;;7.30;;
37275;SDS011;23166;51.150;21.620;2022-08-03T02:33:17;9.80;;;6.28;;
37275;SDS011;23166;51.150;21.620;2022-08-03T02:35:46;9.83;;;6.92;;
37275;SDS011;23166;51.150;21.620;2022-08-03T02:38:18;10.43;;;6.67;;
37275;SDS011;23166;51.150;21.620;2022-08-03T02:40:44;10.48;;;7.20;;
37275;SDS011;23166;51.150;21.620;2022-08-03T02:43:14;10.48;;;6.35;;
37275;SDS011;23166;51.150;21.620;2022-08-03T02:45:42;8.23;;;6.40;;
37275;SDS011;23166;51.150;21.620;2022-08-03T02:48:11;11.48;;;7.08;;
37275;SDS011;23166;51.150;21.620;2022-08-03T02:50:53;8.45;;;6.65;;
37275;SDS011;23166;51.150;21.620;2022-08-03T02:53:17;12.55;;;6.78;;
37275;SDS011;23166;51.150;21.620;2022-08-03T02:55:46;10.20;;;6.30;;
37275;SDS011;23166;51.150;21.620;2022-08-03T02:58:16;9.03;;;5.87;;
37275;SDS011;23166;51.150;21.620;2022-08-03T03:00:45;9.63;;;6.47;;
37275;SDS011;23166;51.150;21.620;2022-08-03T03:03:13;10.08;;;6.90;;
37275;SDS011;23166;51.150;21.620;2022-08-03T03:05:40;10.28;;;6.50;;
37275;SDS011;23166;51.150;21.620;2022-08-03T03:08:07;9.40;;;5.45;;
37275;SDS011;23166;51.150;21.620;2022-08-03T03:10:36;8.80;;;6.17;;
37275;SDS011;23166;51.150;21.620;2022-08-03T03:13:02;10.28;;;6.62;;
37275;SDS011;23166;51.150;21.620;2022-08-03T03:15:29;8.30;;;6.30;;
37275;SDS011;23166;51.150;21.620;2022-08-03T03:17:56;11.18;;;6.95;;
37275;SDS011;23166;51.150;21.620;2022-08-03T03:20:25;10.03;;;7.00;;
37275;SDS011;23166;51.150;21.620;2022-08-03T03:22:54;9.78;;;6.40;;
37275;SDS011;23166;51.150;21.620;2022-08-03T03:25:21;10.30;;;5.65;;
37275;SDS011;23166;51.150;21.620;2022-08-03T03:27:48;7.83;;;6.30;;
37275;SDS011;23166;51.150;21.620;2022-08-03T03:30:15;10.65;;;6.62;;
37275;SDS011;23166;51.150;21.620;2022-08-03T03:32:42;13.55;;;6.83;;
37275;SDS011;23166;51.150;21.620;2022-08-03T03:35:08;24.70;;;8.10;;
37275;SDS011;23166;51.150;21.620;2022-08-03T03:37:36;10.25;;;7.22;;
37275;SDS011;23166;51.150;21.620;2022-08-03T03:40:02;15.20;;;7.08;;
37275;SDS011;23166;51.150;21.620;2022-08-03T03:42:30;14.95;;;7.08;;
37275;SDS011;23166;51.150;21.620;2022-08-03T03:44:57;14.68;;;7.90;;
37275;SDS011;23166;51.150;21.620;2022-08-03T03:47:24;10.85;;;6.03;;
37275;SDS011;23166;51.150;21.620;2022-08-03T03:49:50;13.90;;;6.03;;
37275;SDS011;23166;51.150;21.620;2022-08-03T03:52:17;11.53;;;8.13;;
37275;SDS011;23166;51.150;21.620;2022-08-03T03:54:43;16.57;;;7.67;;
37275;SDS011;23166;51.150;21.620;2022-08-03T03:57:10;23.47;;;8.60;;
37275;SDS011;23166;51.150;21.620;2022-08-03T03:59:37;15.60;;;8.60;;
37275;SDS011;23166;51.150;21.620;2022-08-03T04:02:04;14.20;;;6.53;;
37275;SDS011;23166;51.150;21.620;2022-08-03T04:04:32;9.40;;;6.58;;
37275;SDS011;23166;51.150;21.620;2022-08-03T04:07:18;11.37;;;7.13;;
37275;SDS011;23166;51.150;21.620;2022-08-03T04:10:04;9.75;;;5.72;;
37275;SDS011;23166;51.150;21.620;2022-08-03T04:12:51;21.50;;;6.95;;
37275;SDS011;23166;51.150;21.620;2022-08-03T04:15:20;10.00;;;6.60;;
37275;SDS011;23166;51.150;21.620;2022-08-03T04:17:48;9.08;;;6.45;;
37275;SDS011;23166;51.150;21.620;2022-08-03T04:20:18;10.03;;;7.00;;
37275;SDS011;23166;51.150;21.620;2022-08-03T04:22:47;8.93;;;6.67;;
37275;SDS011;23166;51.150;21.620;2022-08-03T04:25:16;10.60;;;6.47;;
37275;SDS011;23166;51.150;21.620;2022-08-03T04:27:45;11.63;;;7.53;;
37275;SDS011;23166;51.150;21.620;2022-08-03T04:30:13;12.55;;;7.60;;
37275;SDS011;23166;51.150;21.620;2022-08-03T04:32:40;9.25;;;6.90;;
37275;SDS011;23166;51.150;21.620;2022-08-03T04:35:09;10.88;;;7.30;;
37275;SDS011;23166;51.150;21.620;2022-08-03T04:37:40;10.53;;;6.87;;
37275;SDS011;23166;51.150;21.620;2022-08-03T04:40:14;10.38;;;7.72;;
37275;SDS011;23166;51.150;21.620;2022-08-03T04:42:54;10.13;;;7.15;;
37275;SDS011;23166;51.150;21.620;2022-08-03T04:45:23;10.93;;;7.55;;
37275;SDS011;23166;51.150;21.620;2022-08-03T04:47:50;11.73;;;8.30;;
37275;SDS011;23166;51.150;21.620;2022-08-03T04:50:17;16.40;;;9.60;;
37275;SDS011;23166;51.150;21.620;2022-08-03T04:52:44;11.33;;;8.03;;
37275;SDS011;23166;51.150;21.620;2022-08-03T04:55:11;14.00;;;8.03;;
37275;SDS011;23166;51.150;21.620;2022-08-03T04:57:38;12.30;;;8.15;;
37275;SDS011;23166;51.150;21.620;2022-08-03T05:00:04;12.20;;;7.35;;
37275;SDS011;23166;51.150;21.620;2022-08-03T05:02:31;15.60;;;9.30;;
37275;SDS011;23166;51.150;21.620;2022-08-03T05:04:58;10.70;;;7.35;;
37275;SDS011;23166;51.150;21.620;2022-08-03T05:07:25;11.22;;;6.70;;
37275;SDS011;23166;51.150;21.620;2022-08-03T05:09:51;11.15;;;7.35;;
37275;SDS011;23166;51.150;21.620;2022-08-03T05:12:17;13.88;;;7.37;;
37275;SDS011;23166;51.150;21.620;2022-08-03T05:14:44;14.28;;;7.67;;
37275;SDS011;23166;51.150;21.620;2022-08-03T05:17:10;10.40;;;7.03;;
37275;SDS011;23166;51.150;21.620;2022-08-03T05:19:37;7.53;;;6.05;;
37275;SDS011;23166;51.150;21.620;2022-08-03T05:22:03;10.25;;;6.08;;
37275;SDS011;23166;51.150;21.620;2022-08-03T05:24:30;8.75;;;5.65;;
37275;SDS011;23166;51.150;21.620;2022-08-03T05:26:56;6.67;;;5.12;;
37275;SDS011;23166;51.150;21.620;2022-08-03T05:29:22;9.65;;;5.28;;
37275;SDS011;23166;51.150;21.620;2022-08-03T05:31:49;7.50;;;5.08;;
37275;SDS011;23166;51.150;21.620;2022-08-03T05:34:15;9.95;;;4.95;;
37275;SDS011;23166;51.150;21.620;2022-08-03T05:36:42;8.95;;;5.53;;
37275;SDS011;23166;51.150;21.620;2022-08-03T05:39:08;5.28;;;4.17;;
37275;SDS011;23166;51.150;21.620;2022-08-03T05:41:34;5.47;;;4.05;;
37275;SDS011;23166;51.150;21.620;2022-08-03T05:44:01;7.15;;;5.08;;
37275;SDS011;23166;51.150;21.620;2022-08-03T05:46:27;4.83;;;4.10;;
37275;SDS011;23166;51.150;21.620;2022-08-03T05:48:54;5.28;;;3.58;;
37275;SDS011;23166;51.150;21.620;2022-08-03T07:33:20;1.57;;;1.47;;
37275;SDS011;23166;51.150;21.620;2022-08-03T07:35:46;1.62;;;1.27;;
37275;SDS011;23166;51.150;21.620;2022-08-03T07:38:13;3.77;;;1.45;;
37275;SDS011;23166;51.150;21.620;2022-08-03T07:40:39;0.95;;;0.90;;
37275;SDS011;23166;51.150;21.620;2022-08-03T07:43:05;1.70;;;1.30;;
37275;SDS011;23166;51.150;21.620;2022-08-03T07:45:32;2.12;;;1.12;;
37275;SDS011;23166;51.150;21.620;2022-08-03T07:52:51;1.17;;;1.07;;
37275;SDS011;23166;51.150;21.620;2022-08-03T07:55:19;1.50;;;1.30;;
37275;SDS011;23166;51.150;21.620;2022-08-03T08:00:37;2.08;;;1.20;;
37275;SDS011;23166;51.150;21.620;2022-08-03T08:03:04;1.32;;;1.20;;
37275;SDS011;23166;51.150;21.620;2022-08-03T08:05:30;1.70;;;1.55;;
37275;SDS011;23166;51.150;21.620;2022-08-03T08:07:57;1.57;;;1.37;;
37275;SDS011;23166;51.150;21.620;2022-08-03T08:10:24;2.05;;;1.60;;
37275;SDS011;23166;51.150;21.620;2022-08-03T08:17:45;1.67;;;1.50;;
37275;SDS011;23166;51.150;21.620;2022-08-03T08:20:17;2.30;;;1.87;;
37275;SDS011;23166;51.150;21.620;2022-08-03T08:22:45;1.50;;;1.40;;
37275;SDS011;23166;51.150;21.620;2022-08-03T08:25:12;16.35;;;6.28;;
37275;SDS011;23166;51.150;21.620;2022-08-03T08:27:41;31.68;;;10.25;;
37275;SDS011;23166;51.150;21.620;2022-08-03T08:30:09;32.28;;;11.93;;
37275;SDS011;23166;51.150;21.620;2022-08-03T08:32:37;34.43;;;11.05;;
37275;SDS011;23166;51.150;21.620;2022-08-03T08:35:04;21.42;;;9.03;;
37275;SDS011;23166;51.150;21.620;2022-08-03T08:37:31;5.83;;;3.65;;
37275;SDS011;23166;51.150;21.620;2022-08-03T08:42:25;8.20;;;4.22;;
37275;SDS011;23166;51.150;21.620;2022-08-03T08:47:17;7.33;;;3.30;;
37275;SDS011;23166;51.150;21.620;2022-08-03T08:49:46;11.88;;;4.58;;
37275;SDS011;23166;51.150;21.620;2022-08-03T08:52:14;3.12;;;2.22;;
37275;SDS011;23166;51.150;21.620;2022-08-03T08:57:09;2.25;;;1.20;;
37275;SDS011;23166;51.150;21.620;2022-08-03T08:59:36;2.62;;;2.08;;
37275;SDS011;23166;51.150;21.620;2022-08-03T09:02:03;4.08;;;2.58;;
37275;SDS011;23166;51.150;21.620;2022-08-03T09:04:29;7.75;;;3.92;;
37275;SDS011;23166;51.150;21.620;2022-08-03T09:06:56;3.58;;;2.55;;
37275;SDS011;23166;51.150;21.620;2022-08-03T09:09:22;4.87;;;2.92;;
37275;SDS011;23166;51.150;21.620;2022-08-03T09:11:49;4.35;;;2.80;;
37275;SDS011;23166;51.150;21.620;2022-08-03T09:14:15;3.83;;;2.52;;
37275;SDS011;23166;51.150;21.620;2022-08-03T09:16:55;6.47;;;2.33;;
37275;SDS011;23166;51.150;21.620;2022-08-03T09:19:27;2.20;;;1.40;;
37275;SDS011;23166;51.150;21.620;2022-08-03T09:27:21;10.53;;;3.80;;
37275;SDS011;23166;51.150;21.620;2022-08-03T09:29:48;4.80;;;1.60;;
37275;SDS011;23166;51.150;21.620;2022-08-03T09:32:19;2.05;;;1.37;;
37275;SDS011;23166;51.150;21.620;2022-08-03T09:34:48;2.17;;;1.80;;
37275;SDS011;23166;51.150;21.620;2022-08-03T09:37:16;3.45;;;1.62;;
37275;SDS011;23166;51.150;21.620;2022-08-03T09:39:43;3.25;;;1.90;;
37275;SDS011;23166;51.150;21.620;2022-08-03T09:42:11;4.58;;;2.17;;
37275;SDS011;23166;51.150;21.620;2022-08-03T09:44:45;4.50;;;1.57;;
37275;SDS011;23166;51.150;21.620;2022-08-03T09:47:13;1.52;;;1.12;;
37275;SDS011;23166;51.150;21.620;2022-08-03T09:49:42;3.98;;;1.47;;
37275;SDS011;23166;51.150;21.620;2022-08-03T09:52:14;1.82;;;1.47;;
37275;SDS011;23166;51.150;21.620;2022-08-03T09:54:43;2.58;;;1.10;;
37275;SDS011;23166;51.150;21.620;2022-08-03T09:57:24;3.37;;;1.50;;
37275;SDS011;23166;51.150;21.620;2022-08-03T09:59:52;3.37;;;1.42;;
37275;SDS011;23166;51.150;21.620;2022-08-03T10:02:23;0.98;;;0.75;;
37275;SDS011;23166;51.150;21.620;2022-08-03T10:04:51;1.22;;;1.00;;
37275;SDS011;23166;51.150;21.620;2022-08-03T10:07:20;1.00;;;1.00;;
37275;SDS011;23166;51.150;21.620;2022-08-03T10:10:00;1.00;;;0.90;;
37275;SDS011;23166;51.150;21.620;2022-08-03T10:12:27;1.25;;;1.02;;
37275;SDS011;23166;51.150;21.620;2022-08-03T10:14:54;3.33;;;1.70;;
37275;SDS011;23166;51.150;21.620;2022-08-03T10:17:21;1.30;;;0.88;;
37275;SDS011;23166;51.150;21.620;2022-08-03T10:19:48;1.32;;;1.07;;
37275;SDS011;23166;51.150;21.620;2022-08-03T10:22:15;2.87;;;1.07;;
37275;SDS011;23166;51.150;21.620;2022-08-03T10:27:21;3.30;;;1.65;;
37275;SDS011;23166;51.150;21.620;2022-08-03T10:29:52;2.33;;;1.00;;
37275;SDS011;23166;51.150;21.620;2022-08-03T10:32:22;2.00;;;1.07;;
37275;SDS011;23166;51.150;21.620;2022-08-03T10:34:51;1.32;;;1.10;;
37275;SDS011;23166;51.150;21.620;2022-08-03T10:37:21;5.37;;;1.20;;
37275;SDS011;23166;51.150;21.620;2022-08-03T10:39:52;4.55;;;1.30;;
37275;SDS011;23166;51.150;21.620;2022-08-03T10:42:22;4.30;;;1.32;;
37275;SDS011;23166;51.150;21.620;2022-08-03T10:44:57;1.52;;;1.30;;
37275;SDS011;23166;51.150;21.620;2022-08-03T10:47:22;3.12;;;1.40;;
37275;SDS011;23166;51.150;21.620;2022-08-03T11:00:19;1.50;;;1.40;;
37275;SDS011;23166;51.150;21.620;2022-08-03T11:05:35;3.90;;;1.30;;
37275;SDS011;23166;51.150;21.620;2022-08-03T11:08:18;3.75;;;1.17;;
37275;SDS011;23166;51.150;21.620;2022-08-03T11:10:48;2.17;;;1.62;;
37275;SDS011;23166;51.150;21.620;2022-08-03T11:13:16;1.35;;;1.20;;
37275;SDS011;23166;51.150;21.620;2022-08-03T11:15:45;3.87;;;1.62;;
37275;SDS011;23166;51.150;21.620;2022-08-03T11:18:13;2.33;;;1.40;;
37275;SDS011;23166;51.150;21.620;2022-08-03T11:20:54;1.05;;;0.98;;
37275;SDS011;23166;51.150;21.620;2022-08-03T11:26:16;2.58;;;2.37;;
37275;SDS011;23166;51.150;21.620;2022-08-03T11:28:47;1.85;;;1.70;;
37275;SDS011;23166;51.150;21.620;2022-08-03T11:39:40;6.10;;;1.52;;
37275;SDS011;23166;51.150;21.620;2022-08-03T11:44:54;4.25;;;1.98;;
37275;SDS011;23166;51.150;21.620;2022-08-03T11:47:23;4.53;;;1.42;;
37275;SDS011;23166;51.150;21.620;2022-08-03T11:49:53;1.30;;;1.20;;
37275;SDS011;23166;51.150;21.620;2022-08-03T11:52:22;1.52;;;1.30;;
37275;SDS011;23166;51.150;21.620;2022-08-03T11:54:52;1.35;;;1.25;;
37275;SDS011;23166;51.150;21.620;2022-08-03T11:57:32;4.05;;;1.70;;
37275;SDS011;23166;51.150;21.620;2022-08-03T11:59:59;1.90;;;1.60;;
37275;SDS011;23166;51.150;21.620;2022-08-03T12:02:26;1.90;;;1.30;;
37275;SDS011;23166;51.150;21.620;2022-08-03T12:04:56;1.60;;;1.50;;
37275;SDS011;23166;51.150;21.620;2022-08-03T12:07:26;3.15;;;0.98;;
37275;SDS011;23166;51.150;21.620;2022-08-03T12:12:37;1.60;;;1.50;;
37275;SDS011;23166;51.150;21.620;2022-08-03T12:15:04;1.87;;;1.57;;
37275;SDS011;23166;51.150;21.620;2022-08-03T12:17:38;1.30;;;1.20;;
37275;SDS011;23166;51.150;21.620;2022-08-03T12:20:07;4.05;;;1.17;;
37275;SDS011;23166;51.150;21.620;2022-08-03T12:22:35;1.72;;;1.35;;
37275;SDS011;23166;51.150;21.620;2022-08-03T12:25:04;3.95;;;1.80;;
37275;SDS011;23166;51.150;21.620;2022-08-03T12:27:33;3.02;;;1.40;;
37275;SDS011;23166;51.150;21.620;2022-08-03T12:30:00;1.95;;;1.40;;
37275;SDS011;23166;51.150;21.620;2022-08-03T12:32:28;1.42;;;1.32;;
37275;SDS011;23166;51.150;21.620;2022-08-03T12:34:55;1.30;;;1.20;;
37275;SDS011;23166;51.150;21.620;2022-08-03T12:37:25;1.40;;;1.30;;
37275;SDS011;23166;51.150;21.620;2022-08-03T12:39:53;1.67;;;1.57;;
37275;SDS011;23166;51.150;21.620;2022-08-03T12:42:28;1.90;;;1.50;;
37275;SDS011;23166;51.150;21.620;2022-08-03T12:47:57;3.42;;;1.82;;
37275;SDS011;23166;51.150;21.620;2022-08-03T12:52:57;2.80;;;1.47;;
37275;SDS011;23166;51.150;21.620;2022-08-03T12:55:24;1.22;;;1.12;;
37275;SDS011;23166;51.150;21.620;2022-08-03T12:58:08;1.22;;;1.20;;
37275;SDS011;23166;51.150;21.620;2022-08-03T13:00:34;3.02;;;1.65;;
37275;SDS011;23166;51.150;21.620;2022-08-03T13:03:02;1.40;;;1.30;;
37275;SDS011;23166;51.150;21.620;2022-08-03T13:05:41;2.52;;;1.30;;
37275;SDS011;23166;51.150;21.620;2022-08-03T13:08:16;1.47;;;1.37;;
37275;SDS011;23166;51.150;21.620;2022-08-03T13:10:48;1.35;;;1.17;;
37275;SDS011;23166;51.150;21.620;2022-08-03T13:13:15;3.92;;;1.42;;
37275;SDS011;23166;51.150;21.620;2022-08-03T13:15:41;1.42;;;1.30;;
37275;SDS011;23166;51.150;21.620;2022-08-03T13:18:08;1.60;;;1.50;;
37275;SDS011;23166;51.150;21.620;2022-08-03T13:20:34;1.55;;;1.45;;
37275;SDS011;23166;51.150;21.620;2022-08-03T13:23:01;1.22;;;1.12;;
37275;SDS011;23166;51.150;21.620;2022-08-03T13:27:54;4.10;;;1.40;;
37275;SDS011;23166;51.150;21.620;2022-08-03T13:30:20;2.50;;;1.12;;
37275;SDS011;23166;51.150;21.620;2022-08-03T13:32:46;1.85;;;1.42;;
37275;SDS011;23166;51.150;21.620;2022-08-03T13:35:13;2.70;;;1.50;;
37275;SDS011;23166;51.150;21.620;2022-08-03T13:42:52;2.22;;;1.22;;
37275;SDS011;23166;51.150;21.620;2022-08-03T13:45:18;1.67;;;1.40;;
37275;SDS011;23166;51.150;21.620;2022-08-03T13:47:45;1.30;;;1.20;;
37275;SDS011;23166;51.150;21.620;2022-08-03T13:50:11;1.70;;;1.50;;
37275;SDS011;23166;51.150;21.620;2022-08-03T13:52:37;1.12;;;1.05;;
37275;SDS011;23166;51.150;21.620;2022-08-03T13:55:04;1.90;;;1.40;;
37275;SDS011;23166;51.150;21.620;2022-08-03T13:57:32;2.75;;;1.50;;
37275;SDS011;23166;51.150;21.620;2022-08-03T13:59:59;1.77;;;1.35;;
37275;SDS011;23166;51.150;21.620;2022-08-03T14:02:25;1.67;;;1.57;;
37275;SDS011;23166;51.150;21.620;2022-08-03T14:04:52;1.75;;;1.20;;
37275;SDS011;23166;51.150;21.620;2022-08-03T14:07:19;4.78;;;2.20;;
37275;SDS011;23166;51.150;21.620;2022-08-03T14:09:45;3.65;;;2.27;;
37275;SDS011;23166;51.150;21.620;2022-08-03T14:12:12;3.83;;;2.17;;
37275;SDS011;23166;51.150;21.620;2022-08-03T14:14:38;3.75;;;1.72;;
37275;SDS011;23166;51.150;21.620;2022-08-03T14:17:05;2.62;;;2.25;;
37275;SDS011;23166;51.150;21.620;2022-08-03T14:19:31;7.25;;;2.05;;
37275;SDS011;23166;51.150;21.620;2022-08-03T14:21:57;5.62;;;2.37;;
37275;SDS011;23166;51.150;21.620;2022-08-03T14:24:24;5.47;;;1.70;;
37275;SDS011;23166;51.150;21.620;2022-08-03T14:26:50;1.50;;;1.40;;
37275;SDS011;23166;51.150;21.620;2022-08-03T14:29:17;3.33;;;1.47;;
37275;SDS011;23166;51.150;21.620;2022-08-03T14:31:43;1.60;;;1.42;;
37275;SDS011;23166;51.150;21.620;2022-08-03T14:34:10;2.00;;;1.62;;
37275;SDS011;23166;51.150;21.620;2022-08-03T14:36:36;2.33;;;1.62;;
37275;SDS011;23166;51.150;21.620;2022-08-03T14:39:02;2.05;;;1.82;;
37275;SDS011;23166;51.150;21.620;2022-08-03T14:41:29;1.62;;;1.52;;
37275;SDS011;23166;51.150;21.620;2022-08-03T14:43:55;1.55;;;1.45;;
37275;SDS011;23166;51.150;21.620;2022-08-03T14:46:22;3.05;;;1.35;;
37275;SDS011;23166;51.150;21.620;2022-08-03T14:48:48;5.33;;;2.22;;
37275;SDS011;23166;51.150;21.620;2022-08-03T14:51:15;13.85;;;1.95;;
37275;SDS011;23166;51.150;21.620;2022-08-03T14:53:41;1.72;;;1.37;;
37275;SDS011;23166;51.150;21.620;2022-08-03T14:56:07;1.72;;;1.62;;
37275;SDS011;23166;51.150;21.620;2022-08-03T14:58:34;2.52;;;1.75;;
37275;SDS011;23166;51.150;21.620;2022-08-03T15:01:00;4.67;;;1.32;;
37275;SDS011;23166;51.150;21.620;2022-08-03T15:03:27;2.27;;;1.50;;
37275;SDS011;23166;51.150;21.620;2022-08-03T15:05:57;1.95;;;1.75;;
37275;SDS011;23166;51.150;21.620;2022-08-03T15:08:22;2.02;;;1.80;;
37275;SDS011;23166;51.150;21.620;2022-08-03T15:10:50;1.67;;;1.50;;
37275;SDS011;23166;51.150;21.620;2022-08-03T15:13:16;2.25;;;1.10;;
37275;SDS011;23166;51.150;21.620;2022-08-03T15:15:44;1.40;;;1.30;;
37275;SDS011;23166;51.150;21.620;2022-08-03T15:18:11;1.47;;;1.30;;
37275;SDS011;23166;51.150;21.620;2022-08-03T15:20:37;3.37;;;1.30;;
37275;SDS011;23166;51.150;21.620;2022-08-03T15:23:04;2.52;;;1.50;;
37275;SDS011;23166;51.150;21.620;2022-08-03T15:25:30;1.72;;;1.57;;
37275;SDS011;23166;51.150;21.620;2022-08-03T15:27:56;1.35;;;1.25;;
37275;SDS011;23166;51.150;21.620;2022-08-03T15:30:23;2.05;;;1.77;;
37275;SDS011;23166;51.150;21.620;2022-08-03T15:32:49;1.47;;;1.27;;
37275;SDS011;23166;51.150;21.620;2022-08-03T15:35:16;1.25;;;1.15;;
37275;SDS011;23166;51.150;21.620;2022-08-03T15:37:42;6.17;;;1.62;;
37275;SDS011;23166;51.150;21.620;2022-08-03T15:40:09;1.77;;;1.50;;
37275;SDS011;23166;51.150;21.620;2022-08-03T15:42:36;3.83;;;1.45;;
37275;SDS011;23166;51.150;21.620;2022-08-03T15:45:02;1.40;;;1.30;;
37275;SDS011;23166;51.150;21.620;2022-08-03T15:47:29;1.50;;;1.40;;
37275;SDS011;23166;51.150;21.620;2022-08-03T15:49:56;2.70;;;1.75;;
37275;SDS011;23166;51.150;21.620;2022-08-03T15:52:22;3.17;;;1.65;;
37275;SDS011;23166;51.150;21.620;2022-08-03T15:54:48;1.10;;;1.07;;
37275;SDS011;23166;51.150;21.620;2022-08-03T15:57:15;1.85;;;1.37;;
37275;SDS011;23166;51.150;21.620;2022-08-03T15:59:41;4.35;;;1.60;;
37275;SDS011;23166;51.150;21.620;2022-08-03T16:02:08;2.52;;;1.37;;
37275;SDS011;23166;51.150;21.620;2022-08-03T16:04:35;7.17;;;1.77;;
37275;SDS011;23166;51.150;21.620;2022-08-03T16:07:01;1.47;;;1.30;;
37275;SDS011;23166;51.150;21.620;2022-08-03T16:09:27;3.20;;;1.25;;
37275;SDS011;23166;51.150;21.620;2022-08-03T16:11:54;1.35;;;1.25;;
37275;SDS011;23166;51.150;21.620;2022-08-03T16:14:20;1.52;;;1.42;;
37275;SDS011;23166;51.150;21.620;2022-08-03T16:16:47;1.60;;;1.40;;
37275;SDS011;23166;51.150;21.620;2022-08-03T16:19:13;1.20;;;1.10;;
37275;SDS011;23166;51.150;21.620;2022-08-03T16:24:06;1.55;;;1.45;;
37275;SDS011;23166;51.150;21.620;2022-08-03T16:26:32;1.40;;;1.30;;
37275;SDS011;23166;51.150;21.620;2022-08-03T16:28:59;1.60;;;1.27;;
37275;SDS011;23166;51.150;21.620;2022-08-03T16:31:25;2.00;;;1.27;;
37275;SDS011;23166;51.150;21.620;2022-08-03T16:33:53;2.87;;;1.40;;
37275;SDS011;23166;51.150;21.620;2022-08-03T16:36:19;1.35;;;1.22;;
37275;SDS011;23166;51.150;21.620;2022-08-03T16:38:46;1.85;;;1.50;;
37275;SDS011;23166;51.150;21.620;2022-08-03T16:41:12;5.50;;;1.50;;
37275;SDS011;23166;51.150;21.620;2022-08-03T16:43:39;1.72;;;1.55;;
37275;SDS011;23166;51.150;21.620;2022-08-03T16:46:06;2.08;;;1.32;;
37275;SDS011;23166;51.150;21.620;2022-08-03T16:48:32;1.47;;;1.37;;
37275;SDS011;23166;51.150;21.620;2022-08-03T16:50:58;2.10;;;1.87;;
37275;SDS011;23166;51.150;21.620;2022-08-03T16:53:25;1.52;;;1.42;;
37275;SDS011;23166;51.150;21.620;2022-08-03T16:55:51;1.87;;;1.67;;
37275;SDS011;23166;51.150;21.620;2022-08-03T17:03:10;2.58;;;1.67;;
37275;SDS011;23166;51.150;21.620;2022-08-03T17:05:38;2.42;;;1.50;;
37275;SDS011;23166;51.150;21.620;2022-08-03T17:08:04;3.08;;;1.27;;
37275;SDS011;23166;51.150;21.620;2022-08-03T17:10:32;2.55;;;1.37;;
37275;SDS011;23166;51.150;21.620;2022-08-03T17:12:58;1.87;;;1.67;;
37275;SDS011;23166;51.150;21.620;2022-08-03T17:15:24;1.20;;;1.10;;
37275;SDS011;23166;51.150;21.620;2022-08-03T17:17:56;1.47;;;1.37;;
37275;SDS011;23166;51.150;21.620;2022-08-03T17:20:21;5.50;;;1.40;;
37275;SDS011;23166;51.150;21.620;2022-08-03T17:22:53;3.65;;;1.60;;
37275;SDS011;23166;51.150;21.620;2022-08-03T17:25:42;1.80;;;1.42;;
37275;SDS011;23166;51.150;21.620;2022-08-03T17:28:10;6.08;;;1.67;;
37275;SDS011;23166;51.150;21.620;2022-08-03T17:30:39;22.37;;;2.60;;
37275;SDS011;23166;51.150;21.620;2022-08-03T17:33:25;2.62;;;1.72;;
37275;SDS011;23166;51.150;21.620;2022-08-03T17:35:53;5.95;;;2.27;;
37275;SDS011;23166;51.150;21.620;2022-08-03T17:38:21;4.42;;;2.20;;
37275;SDS011;23166;51.150;21.620;2022-08-03T17:40:48;3.33;;;1.67;;
37275;SDS011;23166;51.150;21.620;2022-08-03T17:45:42;3.83;;;2.05;;